Time;durP1;ratioP1;P1;durP2;ratioP2;P2;SDS_P1;SDS_P2;PMS_P1;PMS_P2;Temp;Humidity;BMP_temperature;BMP_pressure;BME280_temperature;BME280_humidity;BME280_pressure;Samples;Min_cycle;Max_cycle;Signal;HPM_P1;HPM_P2
2021/05/28 00:03:07;;;;;;;14.77;8.80;;;;;6.80;101814.00;;;;10453468;28;20218;-80
2021/05/28 00:08:09;;;;;;;14.60;9.10;;;;;6.70;101810.00;;;;10471782;28;20193;-79
2021/05/28 00:13:11;;;;;;;13.93;8.70;;;;;6.60;101803.00;;;;10470820;28;20193;-80
2021/05/28 00:18:13;;;;;;;14.37;9.33;;;;;6.60;101808.00;;;;10461268;28;20206;-79
2021/05/28 00:23:15;;;;;;;16.37;9.47;;;;;6.50;101806.00;;;;10473403;28;20217;-80
2021/05/28 00:28:17;;;;;;;18.57;10.23;;;;;6.50;101803.00;;;;10478480;28;20230;-79
2021/05/28 00:33:19;;;;;;;21.70;10.57;;;;;6.50;101799.00;;;;10494206;28;20224;-79
2021/05/28 00:38:21;;;;;;;17.17;10.30;;;;;6.50;101793.00;;;;10512665;28;20655;-81
2021/05/28 00:43:22;;;;;;;26.37;12.17;;;;;6.50;101803.00;;;;10494238;28;20243;-79
2021/05/28 00:48:24;;;;;;;22.50;12.13;;;;;6.50;101795.00;;;;10494650;28;20197;-79
2021/05/28 00:53:27;;;;;;;20.63;10.67;;;;;6.40;101794.00;;;;10495234;28;20197;-80
2021/05/28 00:58:29;;;;;;;15.63;10.97;;;;;6.40;101796.00;;;;10494531;28;20914;-80
2021/05/28 01:03:31;;;;;;;17.47;10.47;;;;;6.30;101795.00;;;;10491436;28;20305;-79
2021/05/28 01:08:33;;;;;;;22.47;11.90;;;;;6.20;101790.00;;;;10522766;28;20532;-78
2021/05/28 01:13:35;;;;;;;17.53;10.77;;;;;6.20;101796.00;;;;10507864;28;20197;-78
2021/05/28 01:18:43;;;;;;;15.90;11.03;;;;;6.10;101801.00;;;;10476336;28;20294;-79
2021/05/28 01:23:45;;;;;;;20.57;13.07;;;;;6.10;101800.00;;;;10502442;28;20249;-79
2021/05/28 01:28:47;;;;;;;24.07;13.93;;;;;6.10;101798.00;;;;10503588;28;20193;-78
2021/05/28 01:33:49;;;;;;;23.03;12.77;;;;;6.00;101810.00;;;;10490835;28;20282;-79
2021/05/28 01:38:50;;;;;;;29.10;11.77;;;;;6.00;101805.00;;;;10491137;28;20201;-78
2021/05/28 01:43:52;;;;;;;20.53;11.53;;;;;6.00;101812.00;;;;10506171;28;20220;-78
2021/05/28 01:48:54;;;;;;;16.57;11.77;;;;;5.90;101806.00;;;;10504195;28;20200;-77
2021/05/28 01:53:57;;;;;;;15.37;11.73;;;;;5.80;101805.00;;;;10473738;28;20724;-77
2021/05/28 01:59:02;;;;;;;22.37;13.63;;;;;5.80;101797.00;;;;10489935;28;20197;-78
2021/05/28 02:04:04;;;;;;;22.80;13.53;;;;;5.70;101803.00;;;;10489937;28;20246;-77
2021/05/28 02:09:06;;;;;;;19.87;11.90;;;;;5.70;101799.00;;;;10501002;28;20198;-77
2021/05/28 02:14:09;;;;;;;17.70;11.87;;;;;5.70;101807.00;;;;10473995;28;20626;-77
2021/05/28 02:19:11;;;;;;;21.07;12.83;;;;;5.60;101811.00;;;;10507288;28;20193;-79
2021/05/28 02:24:14;;;;;;;19.07;12.00;;;;;5.60;101799.00;;;;10482773;28;20271;-79
2021/05/28 02:29:17;;;;;;;20.77;12.03;;;;;5.50;101803.00;;;;10459082;28;20198;-78
2021/05/28 02:34:18;;;;;;;17.53;12.00;;;;;5.50;101802.00;;;;10445926;28;20221;-78
2021/05/28 02:39:20;;;;;;;20.30;11.20;;;;;5.40;101800.00;;;;10446732;28;20545;-79
2021/05/28 02:44:22;;;;;;;23.03;13.07;;;;;5.40;101810.00;;;;10436898;28;20275;-77
2021/05/28 02:49:24;;;;;;;21.23;13.83;;;;;5.40;101812.00;;;;10450107;28;20197;-78
2021/05/28 02:54:27;;;;;;;17.83;11.67;;;;;5.30;101805.00;;;;10436714;28;20198;-77
2021/05/28 02:59:29;;;;;;;19.67;11.17;;;;;5.20;101822.00;;;;10453525;28;20224;-77
2021/05/28 03:04:31;;;;;;;15.10;11.37;;;;;5.20;101819.00;;;;10443601;28;20710;-77
2021/05/28 03:09:32;;;;;;;17.80;11.10;;;;;5.10;101823.00;;;;10491708;28;20197;-77
2021/05/28 03:14:34;;;;;;;18.90;12.07;;;;;5.10;101823.00;;;;10488680;28;20193;-77
2021/05/28 03:19:47;;;;;;;19.00;11.77;;;;;5.10;101826.00;;;;10493245;28;20197;-77
2021/05/28 03:24:49;;;;;;;23.07;13.13;;;;;5.10;101828.00;;;;10481621;28;20229;-77
2021/05/28 03:29:53;;;;;;;21.20;13.37;;;;;5.10;101830.00;;;;10452479;28;20622;-77
2021/05/28 03:34:57;;;;;;;18.93;12.40;;;;;5.10;101831.00;;;;10468661;28;20263;-77
2021/05/28 03:40:00;;;;;;;23.77;14.23;;;;;5.10;101838.00;;;;10452436;28;20217;-79
2021/05/28 03:45:05;;;;;;;22.47;14.83;;;;;5.20;101835.00;;;;10457053;28;20278;-78
2021/05/28 03:50:08;;;;;;;25.37;14.90;;;;;5.20;101842.00;;;;10505013;28;20194;-79
2021/05/28 03:55:10;;;;;;;20.40;13.20;;;;;5.30;101844.00;;;;10492436;28;20250;-79
2021/05/28 04:00:12;;;;;;;24.33;12.97;;;;;5.40;101829.00;;;;10493718;28;20205;-78
2021/05/28 04:05:15;;;;;;;26.63;16.23;;;;;5.60;101836.00;;;;10494449;28;20209;-78
2021/05/28 04:10:17;;;;;;;28.77;18.30;;;;;5.70;101836.00;;;;10490352;28;20223;-78
2021/05/28 04:15:19;;;;;;;25.43;16.23;;;;;5.90;101842.00;;;;10457229;28;20655;-78
2021/05/28 04:20:22;;;;;;;30.83;19.13;;;;;6.10;101850.00;;;;10493899;28;20197;-79
2021/05/28 04:25:24;;;;;;;27.80;15.90;;;;;6.30;101857.00;;;;10510188;28;20282;-79
2021/05/28 04:30:26;;;;;;;25.97;16.87;;;;;6.40;101862.00;;;;10480461;28;20204;-78
2021/05/28 04:35:27;;;;;;;31.60;16.90;;;;;6.70;101869.00;;;;10464522;28;20744;-78
2021/05/28 04:40:31;;;;;;;28.60;17.37;;;;;7.00;101882.00;;;;10467605;28;20236;-78
2021/05/28 04:45:33;;;;;;;44.00;21.40;;;;;7.20;101881.00;;;;10451896;28;20221;-77
2021/05/28 04:50:36;;;;;;;30.87;17.47;;;;;7.50;101881.00;;;;10433633;28;20860;-78
2021/05/28 04:55:38;;;;;;;23.37;15.80;;;;;7.70;101906.00;;;;10451399;28;20235;-77
2021/05/28 05:00:40;;;;;;;34.63;18.77;;;;;7.90;101909.00;;;;10486372;28;20626;-78
2021/05/28 05:05:43;;;;;;;37.80;20.97;;;;;8.10;101897.00;;;;10450117;28;20217;-78
2021/05/28 05:10:45;;;;;;;65.93;25.37;;;;;8.30;101902.00;;;;10483644;28;20197;-77
2021/05/28 05:15:47;;;;;;;50.50;26.33;;;;;8.50;101896.00;;;;10474983;28;20930;-79
2021/05/28 05:20:49;;;;;;;46.97;23.43;;;;;8.60;101903.00;;;;10433562;28;20620;-77
2021/05/28 05:25:51;;;;;;;40.93;24.10;;;;;8.80;101917.00;;;;10468353;28;20228;-78
2021/05/28 05:30:53;;;;;;;49.90;24.87;;;;;9.20;101917.00;;;;10457783;28;20201;-78
2021/05/28 05:35:55;;;;;;;36.60;23.90;;;;;9.30;101913.00;;;;10486092;28;20256;-77
2021/05/28 05:40:57;;;;;;;40.00;23.70;;;;;9.30;101911.00;;;;10471127;28;20207;-79
2021/05/28 05:46:01;;;;;;;36.63;24.20;;;;;9.50;101936.00;;;;10538249;28;20225;-78
2021/05/28 05:51:03;;;;;;;40.53;27.83;;;;;10.10;101955.00;;;;10466537;28;20197;-78
2021/05/28 05:56:05;;;;;;;30.33;25.53;;;;;10.60;101965.00;;;;10450308;28;20213;-77
2021/05/28 06:01:08;;;;;;;29.77;22.33;;;;;10.70;101974.00;;;;10466404;28;20201;-78
2021/05/28 06:06:12;;;;;;;31.07;22.83;;;;;10.80;101973.00;;;;10461981;28;20243;-79
2021/05/28 06:11:14;;;;;;;32.20;24.47;;;;;10.70;101966.00;;;;10489048;28;20247;-78
2021/05/28 06:16:16;;;;;;;33.07;25.83;;;;;11.30;101976.00;;;;10525306;28;20181;-79
2021/05/28 06:21:18;;;;;;;27.27;22.63;;;;;11.60;101994.00;;;;10435583;28;20202;-78
2021/05/28 06:26:20;;;;;;;26.80;22.37;;;;;11.80;102001.00;;;;10481122;28;20211;-79
2021/05/28 06:31:22;;;;;;;27.47;22.33;;;;;12.30;102007.00;;;;10513527;28;20254;-78
2021/05/28 06:36:25;;;;;;;24.03;21.17;;;;;13.00;102006.00;;;;10492908;28;20205;-79
2021/05/28 06:41:27;;;;;;;22.10;18.57;;;;;13.60;102015.00;;;;10474431;28;20269;-79
2021/05/28 06:46:29;;;;;;;26.70;19.33;;;;;13.90;102021.00;;;;10495743;28;20738;-79
2021/05/28 06:51:31;;;;;;;22.10;18.43;;;;;14.40;102022.00;;;;10454088;28;20212;-80
2021/05/28 06:56:33;;;;;;;28.43;20.77;;;;;14.50;102025.00;;;;10478881;28;20243;-80
2021/05/28 07:01:35;;;;;;;28.90;20.10;;;;;14.60;102029.00;;;;10526943;28;20216;-80
2021/05/28 07:06:37;;;;;;;26.87;20.20;;;;;14.50;102024.00;;;;10487139;28;20263;-80
2021/05/28 07:11:39;;;;;;;32.70;21.23;;;;;15.10;102027.00;;;;10454381;28;20217;-79
2021/05/28 07:16:41;;;;;;;29.37;21.33;;;;;15.40;102034.00;;;;10456801;28;20296;-80
2021/05/28 07:21:43;;;;;;;26.30;20.47;;;;;15.00;102044.00;;;;10485856;28;20222;-80
2021/05/28 07:26:44;;;;;;;26.97;21.10;;;;;14.80;102033.00;;;;10471255;28;20250;-80
2021/05/28 07:31:48;;;;;;;27.23;19.13;;;;;16.50;102042.00;;;;10494844;28;20602;-79
2021/05/28 07:36:50;;;;;;;23.40;18.10;;;;;17.20;102024.00;;;;10476764;28;20207;-79
2021/05/28 07:41:52;;;;;;;25.70;17.70;;;;;17.30;102032.00;;;;10486313;28;20346;-80
2021/05/28 07:46:54;;;;;;;23.30;17.97;;;;;17.20;102028.00;;;;10481001;28;20208;-79
2021/05/28 07:51:56;;;;;;;19.52;17.40;;;;;17.30;102033.00;;;;10493261;28;20205;-79
2021/05/28 07:56:58;;;;;;;22.07;17.43;;;;;17.00;102034.00;;;;10510071;28;20208;-79
2021/05/28 08:02:01;;;;;;;22.57;17.80;;;;;16.30;102027.00;;;;10462109;28;20217;-79
2021/05/28 08:07:03;;;;;;;25.47;18.03;;;;;16.40;102029.00;;;;10446394;28;20205;-79
2021/05/28 08:12:05;;;;;;;26.27;19.70;;;;;16.50;102025.00;;;;10467079;28;20244;-79
2021/05/28 08:17:07;;;;;;;24.17;17.40;;;;;17.10;102029.00;;;;10451286;28;20210;-81
2021/05/28 08:22:09;;;;;;;19.77;15.47;;;;;18.20;102025.00;;;;10460016;28;20212;-80
2021/05/28 08:27:11;;;;;;;21.52;16.23;;;;;19.70;102012.00;;;;10505630;28;20204;-77
2021/05/28 08:32:15;;;;;;;18.15;13.27;;;;;20.50;102002.00;;;;10461732;28;20700;-78
2021/05/28 08:37:17;;;;;;;20.27;13.52;;;;;21.70;101997.00;;;;10485871;28;20205;-78
2021/05/28 08:42:20;;;;;;;16.02;11.30;;;;;22.30;101993.00;;;;10463400;28;20270;-77
2021/05/28 08:47:23;;;;;;;15.75;10.55;;;;;21.10;101981.00;;;;10431262;28;20205;-76
2021/05/28 08:52:25;;;;;;;16.15;11.38;;;;;20.50;101974.00;;;;10485218;28;20201;-78
2021/05/28 08:57:27;;;;;;;12.80;8.75;;;;;21.50;101969.00;;;;10483802;28;20533;-78
2021/05/28 09:02:34;;;;;;;9.73;6.68;;;;;22.30;101961.00;;;;10481470;28;20213;-79
2021/05/28 09:07:39;;;;;;;10.93;8.48;;;;;22.30;101961.00;;;;10480107;28;20197;-79
2021/05/28 09:12:41;;;;;;;17.23;8.52;;;;;22.70;101952.00;;;;10488177;28;20212;-79
2021/05/28 09:17:51;;;;;;;10.68;8.40;;;;;22.40;101948.00;;;;10491695;28;20229;-78
2021/05/28 09:23:06;;;;;;;13.40;8.55;;;;;22.10;101934.00;;;;10509998;28;20224;-79
2021/05/28 09:28:08;;;;;;;10.13;5.70;;;;;23.20;101929.00;;;;10506383;28;20199;-80
2021/05/28 09:33:20;;;;;;;7.38;5.72;;;;;22.30;101935.00;;;;10486007;28;20965;-79
2021/05/28 09:38:23;;;;;;;8.98;5.65;;;;;22.00;101931.00;;;;10482367;28;20268;-78
2021/05/28 09:43:26;;;;;;;10.40;5.93;;;;;22.30;101923.00;;;;10465391;28;20279;-80
2021/05/28 09:48:30;;;;;;;8.10;5.68;;;;;22.20;101918.00;;;;10500499;28;20205;-79
2021/05/28 09:53:42;;;;;;;9.73;6.05;;;;;22.20;101913.00;;;;10486226;28;20548;-80
2021/05/28 09:59:06;;;;;;;10.73;6.40;;;;;22.40;101918.00;;;;10478188;28;20208;-80
2021/05/28 10:04:09;;;;;;;12.68;6.70;;;;;22.00;101913.00;;;;10465899;28;20225;-80
2021/05/28 10:09:12;;;;;;;10.73;5.75;;;;;22.50;101897.00;;;;10474916;28;20201;-80
2021/05/28 10:14:15;;;;;;;9.38;5.70;;;;;23.20;101907.00;;;;10475817;28;20257;-79
2021/05/28 10:19:18;;;;;;;8.88;5.57;;;;;23.70;101898.00;;;;10444970;28;20262;-79
2021/05/28 10:24:20;;;;;;;9.00;4.88;;;;;23.10;101888.00;;;;10456699;28;20746;-80
2021/05/28 10:29:26;;;;;;;11.50;4.47;;;;;23.80;101889.00;;;;10452266;28;20239;-80
2021/05/28 10:34:30;;;;;;;6.43;4.70;;;;;24.10;101882.00;;;;10505669;28;20225;-79
2021/05/28 10:39:45;;;;;;;6.90;3.63;;;;;24.30;101874.00;;;;10493740;28;20200;-79
2021/05/28 10:44:47;;;;;;;7.63;4.55;;;;;25.10;101870.00;;;;10470263;28;20683;-79
2021/05/28 10:49:53;;;;;;;4.90;4.22;;;;;25.10;101869.00;;;;10484986;28;20197;-80
2021/05/28 10:54:58;;;;;;;6.78;4.50;;;;;24.40;101870.00;;;;10481795;28;20208;-80
2021/05/28 11:00:04;;;;;;;6.03;3.90;;;;;24.10;101850.00;;;;10496166;28;20603;-79
2021/05/28 11:05:07;;;;;;;6.00;5.10;;;;;23.80;101860.00;;;;10459455;28;20217;-80
2021/05/28 11:10:25;;;;;;;7.50;5.07;;;;;23.80;101850.00;;;;10481626;28;20205;-80
2021/05/28 11:15:56;;;;;;;6.65;5.18;;;;;23.80;101845.00;;;;10490378;28;20241;-79
2021/05/28 11:21:19;;;;;;;5.63;4.50;;;;;24.00;101840.00;;;;10469811;28;20711;-80
2021/05/28 11:26:27;;;;;;;7.30;4.47;;;;;23.80;101847.00;;;;10504847;28;20710;-79
2021/05/28 11:31:30;;;;;;;7.30;4.22;;;;;24.20;101838.00;;;;10491188;28;20221;-79
2021/05/28 11:36:33;;;;;;;6.88;4.50;;;;;24.00;101831.00;;;;10495549;28;20197;-80
2021/05/28 11:41:42;;;;;;;8.60;4.85;;;;;23.90;101836.00;;;;10480499;28;20256;-78
2021/05/28 11:46:50;;;;;;;6.78;4.63;;;;;24.00;101833.00;;;;10473119;28;20549;-79
2021/05/28 11:52:07;;;;;;;4.75;4.25;;;;;24.20;101823.00;;;;10449581;28;20251;-80
2021/05/28 11:57:13;;;;;;;7.78;4.82;;;;;24.30;101816.00;;;;10465937;28;20296;-79
2021/05/28 12:02:43;;;;;;;5.68;4.20;;;;;24.40;101814.00;;;;10449955;28;20656;-80
2021/05/28 12:07:46;;;;;;;6.90;4.68;;;;;24.60;101822.00;;;;10489512;28;20209;-80
2021/05/28 12:12:49;;;;;;;8.55;5.30;;;;;24.90;101815.00;;;;10507763;28;20216;-78
2021/05/28 12:17:51;;;;;;;5.68;4.85;;;;;25.10;101806.00;;;;10473155;28;20202;-78
2021/05/28 12:23:01;;;;;;;6.07;4.55;;;;;25.30;101800.00;;;;10483501;28;20287;-78
2021/05/28 12:28:14;;;;;;;6.75;4.70;;;;;25.80;101800.00;;;;10510401;28;20670;-78
2021/05/28 12:33:18;;;;;;;8.27;4.65;;;;;25.70;101803.00;;;;10503645;28;20227;-78
2021/05/28 12:38:21;;;;;;;7.78;4.68;;;;;25.60;101794.00;;;;10504267;28;20254;-78
2021/05/28 12:43:29;;;;;;;6.53;4.80;;;;;25.70;101796.00;;;;10521610;28;21046;-78
2021/05/28 12:48:46;;;;;;;5.68;4.85;;;;;26.10;101799.00;;;;10494014;28;20200;-78
2021/05/28 12:53:47;;;;;;;4.50;3.63;;;;;25.90;101800.00;;;;10540717;28;20200;-78
2021/05/28 12:58:51;;;;;;;5.25;3.53;;;;;25.60;101793.00;;;;10478495;28;20208;-78
2021/05/28 13:03:59;;;;;;;5.25;3.85;;;;;25.20;101785.00;;;;10472943;28;20852;-78
2021/05/28 13:09:10;;;;;;;8.45;4.00;;;;;24.60;101786.00;;;;10468137;28;20260;-77
2021/05/28 13:14:37;;;;;;;7.38;3.22;;;;;24.20;101778.00;;;;10470484;28;20189;-77
2021/05/28 13:19:38;;;;;;;7.30;4.30;;;;;23.80;101787.00;;;;10488940;28;20193;-78
2021/05/28 13:24:43;;;;;;;7.25;3.83;;;;;24.00;101782.00;;;;10524012;28;20756;-78
2021/05/28 13:29:50;;;;;;;8.95;4.28;;;;;24.30;101776.00;;;;10525891;28;20196;-78
2021/05/28 13:34:52;;;;;;;6.57;4.10;;;;;25.30;101770.00;;;;10518798;28;20307;-77
2021/05/28 13:39:54;;;;;;;4.22;3.67;;;;;25.60;101758.00;;;;10493404;28;20197;-77
2021/05/28 13:44:58;;;;;;;4.47;3.45;;;;;25.30;101755.00;;;;10523158;28;20220;-78
2021/05/28 13:50:02;;;;;;;5.43;3.40;;;;;26.10;101752.00;;;;10480386;28;20668;-78
2021/05/28 13:55:06;;;;;;;5.35;3.20;;;;;27.40;101752.00;;;;10488096;28;20713;-77
2021/05/28 14:00:09;;;;;;;8.10;3.80;;;;;28.00;101747.00;;;;10498825;28;20204;-77
2021/05/28 14:05:12;;;;;;;4.45;2.78;;;;;29.80;101750.00;;;;10522919;28;20924;-77
2021/05/28 14:10:15;;;;;;;5.10;3.13;;;;;30.90;101741.00;;;;10515425;28;20213;-75
2021/05/28 14:15:18;;;;;;;6.95;3.53;;;;;31.80;101735.00;;;;10493702;28;20204;-76
2021/05/28 14:20:25;;;;;;;5.20;3.00;;;;;32.20;101739.00;;;;10488178;28;20193;-78
2021/05/28 14:25:27;;;;;;;4.28;3.30;;;;;33.00;101738.00;;;;10477836;28;20271;-80
2021/05/28 14:30:30;;;;;;;9.38;3.63;;;;;32.90;101742.00;;;;10485429;28;20209;-78
2021/05/28 14:35:32;;;;;;;5.82;3.63;;;;;31.70;101741.00;;;;10485266;28;20221;-78
2021/05/28 14:40:34;;;;;;;4.72;3.38;;;;;33.40;101727.00;;;;10497794;28;20209;-79
2021/05/28 14:45:36;;;;;;;7.00;3.30;;;;;32.50;101729.00;;;;10473748;28;20262;-77
2021/05/28 14:50:38;;;;;;;5.68;3.83;;;;;31.60;101732.00;;;;10473470;28;20233;-78
2021/05/28 14:55:40;;;;;;;4.78;3.50;;;;;30.30;101718.00;;;;10508288;28;20200;-78
2021/05/28 15:00:42;;;;;;;5.60;3.20;;;;;32.50;101720.00;;;;10488302;28;20198;-79
2021/05/28 15:05:44;;;;;;;5.20;3.08;;;;;34.00;101714.00;;;;10504310;28;20225;-79
2021/05/28 15:10:46;;;;;;;5.05;3.45;;;;;33.50;101723.00;;;;10478441;28;20250;-78
2021/05/28 15:15:48;;;;;;;5.35;3.58;;;;;34.20;101715.00;;;;10463924;28;20193;-78
2021/05/28 15:20:51;;;;;;;6.28;3.58;;;;;35.20;101712.00;;;;10469333;28;20211;-79
2021/05/28 15:25:53;;;;;;;4.20;3.13;;;;;34.60;101710.00;;;;10484153;28;20281;-79
2021/05/28 15:30:55;;;;;;;3.42;2.70;;;;;35.20;101708.00;;;;10460428;28;20244;-77
2021/05/28 15:35:57;;;;;;;3.50;3.20;;;;;35.70;101706.00;;;;10479355;28;20621;-77
2021/05/28 15:40:59;;;;;;;4.97;2.60;;;;;35.60;101707.00;;;;10494668;28;20692;-77
2021/05/28 15:46:02;;;;;;;3.85;3.38;;;;;33.80;101700.00;;;;10508091;28;20217;-77
2021/05/28 15:51:04;;;;;;;6.88;4.15;;;;;30.60;101692.00;;;;10522798;28;20566;-77
2021/05/28 15:56:08;;;;;;;4.88;3.80;;;;;29.40;101683.00;;;;10483452;28;20213;-77
2021/05/28 16:01:10;;;;;;;6.57;4.82;;;;;31.30;101685.00;;;;10470964;28;20626;-77
2021/05/28 16:06:13;;;;;;;7.75;5.00;;;;;27.50;101693.00;;;;10478449;28;20224;-76
2021/05/28 16:11:15;;;;;;;9.57;5.68;;;;;24.70;101688.00;;;;10511975;28;20255;-76
2021/05/28 16:16:17;;;;;;;6.63;5.90;;;;;23.70;101683.00;;;;10494305;28;20198;-77
2021/05/28 16:21:19;;;;;;;6.93;6.18;;;;;23.40;101691.00;;;;10463133;28;20840;-76
2021/05/28 16:26:21;;;;;;;7.70;5.82;;;;;23.20;101683.00;;;;10483154;28;20228;-76
2021/05/28 16:31:23;;;;;;;7.78;7.00;;;;;23.00;101684.00;;;;10495688;28;20201;-76
2021/05/28 16:36:25;;;;;;;7.55;5.95;;;;;22.80;101684.00;;;;10484152;28;20212;-76
2021/05/28 16:41:29;;;;;;;10.32;7.65;;;;;22.60;101681.00;;;;10500141;28;20608;-76
2021/05/28 16:46:31;;;;;;;8.02;6.40;;;;;22.30;101682.00;;;;10497422;28;20273;-76
2021/05/28 16:51:33;;;;;;;7.60;6.22;;;;;21.90;101680.00;;;;10493297;28;20201;-75
2021/05/28 16:56:35;;;;;;;7.13;6.28;;;;;21.40;101684.00;;;;10493466;28;20254;-75
2021/05/28 17:01:37;;;;;;;6.75;5.13;;;;;21.10;101679.00;;;;10485718;28;20610;-77
2021/05/28 17:06:39;;;;;;;7.38;5.57;;;;;21.00;101679.00;;;;10443708;28;20221;-77
2021/05/28 17:11:41;;;;;;;6.93;5.30;;;;;21.00;101679.00;;;;10473365;28;20233;-76
2021/05/28 17:16:43;;;;;;;6.60;5.35;;;;;21.00;101671.00;;;;10489214;28;20796;-76
2021/05/28 17:21:45;;;;;;;9.80;6.00;;;;;21.10;101665.00;;;;10517698;28;20201;-76
2021/05/28 17:26:47;;;;;;;9.88;6.40;;;;;21.50;101673.00;;;;10532368;28;20235;-77
2021/05/28 17:31:49;;;;;;;8.57;6.63;;;;;21.60;101664.00;;;;10481535;28;20221;-77
2021/05/28 17:36:51;;;;;;;8.35;6.40;;;;;21.60;101666.00;;;;10517050;28;20193;-77
2021/05/28 17:41:52;;;;;;;8.15;6.85;;;;;21.30;101668.00;;;;10458978;28;20221;-76
2021/05/28 17:46:55;;;;;;;9.98;7.28;;;;;20.80;101669.00;;;;10475054;28;20221;-76
2021/05/28 17:52:01;;;;;;;8.68;6.95;;;;;20.30;101673.00;;;;10439995;28;20202;-76
2021/05/28 17:57:03;;;;;;;8.70;6.22;;;;;20.00;101670.00;;;;10476551;28;20214;-77
2021/05/28 18:02:06;;;;;;;7.75;6.13;;;;;19.80;101667.00;;;;10460139;28;20654;-76
2021/05/28 18:07:08;;;;;;;8.77;6.38;;;;;19.60;101674.00;;;;10476754;28;20726;-76
2021/05/28 18:12:10;;;;;;;9.98;6.97;;;;;19.40;101662.00;;;;10485909;28;20201;-76
2021/05/28 18:17:16;;;;;;;10.23;7.97;;;;;19.20;101669.00;;;;10473685;28;20228;-76
2021/05/28 18:22:18;;;;;;;8.75;7.07;;;;;19.00;101677.00;;;;10518812;28;20204;-76
2021/05/28 18:27:20;;;;;;;8.27;7.25;;;;;18.80;101677.00;;;;10479748;28;20698;-76
2021/05/28 18:32:22;;;;;;;7.90;7.00;;;;;18.70;101679.00;;;;10510508;28;20216;-77
2021/05/28 18:37:24;;;;;;;11.57;7.05;;;;;18.60;101683.00;;;;10526271;28;20242;-76
2021/05/28 18:42:26;;;;;;;8.85;6.68;;;;;18.50;101682.00;;;;10504302;28;20612;-76
2021/05/28 18:47:28;;;;;;;11.05;6.75;;;;;18.50;101685.00;;;;10487355;28;20221;-76
2021/05/28 18:52:31;;;;;;;11.15;7.00;;;;;18.40;101683.00;;;;10470471;28;20228;-76
2021/05/28 18:57:33;;;;;;;10.30;6.75;;;;;18.30;101687.00;;;;10484920;28;20261;-76
2021/05/28 19:02:38;;;;;;;8.57;6.43;;;;;18.30;101683.00;;;;10503743;28;20205;-76
2021/05/28 19:07:41;;;;;;;7.35;6.00;;;;;18.30;101683.00;;;;10528618;28;20221;-76
2021/05/28 19:12:44;;;;;;;7.25;5.57;;;;;19.70;101690.00;;;;10544371;28;20188;-77
2021/05/28 19:17:46;;;;;;;8.90;6.63;;;;;19.40;101703.00;;;;10506459;28;20252;-77
2021/05/28 19:22:49;;;;;;;6.63;5.72;;;;;18.60;101694.00;;;;10524943;28;20196;-77
2021/05/28 19:27:52;;;;;;;7.70;5.75;;;;;17.90;101703.00;;;;10453986;28;20260;-77
2021/05/28 19:32:54;;;;;;;6.82;5.47;;;;;17.30;101709.00;;;;10493654;28;20274;-77
2021/05/28 19:37:56;;;;;;;7.97;5.53;;;;;16.80;101714.00;;;;10502578;28;20205;-77
2021/05/28 19:42:59;;;;;;;6.97;5.63;;;;;16.50;101702.00;;;;10530718;28;20214;-77
2021/05/28 19:48:03;;;;;;;7.30;5.60;;;;;16.20;101722.00;;;;10463124;28;20237;-77
2021/05/28 19:53:09;;;;;;;9.03;5.53;;;;;15.90;101716.00;;;;10446219;28;20292;-77
2021/05/28 19:58:14;;;;;;;7.40;5.50;;;;;15.60;101725.00;;;;10448090;28;20686;-77
2021/05/28 20:03:17;;;;;;;6.23;5.03;;;;;15.30;101731.00;;;;10445513;28;20206;-77
2021/05/28 20:08:19;;;;;;;6.90;5.43;;;;;15.10;101733.00;;;;10478754;28;20198;-77
2021/05/28 20:18:44;;;;;;;8.20;6.17;;;;;14.70;101737.00;;;;10493997;28;20201;-77
2021/05/28 20:23:47;;;;;;;10.40;6.63;;;;;14.50;101739.00;;;;10436946;28;20277;-77
2021/05/28 20:28:49;;;;;;;12.37;6.87;;;;;14.30;101746.00;;;;10486371;28;20261;-77
2021/05/28 20:33:51;;;;;;;7.30;5.90;;;;;14.10;101748.00;;;;10483956;28;20217;-77
2021/05/28 20:38:53;;;;;;;9.23;5.97;;;;;13.90;101755.00;;;;10516344;28;20211;-77
2021/05/28 20:43:55;;;;;;;6.70;4.97;;;;;13.70;101757.00;;;;10463422;28;20266;-77
2021/05/28 20:48:57;;;;;;;8.27;6.17;;;;;13.50;101764.00;;;;10501921;28;20199;-77
2021/05/28 20:54:00;;;;;;;9.73;6.27;;;;;13.30;101765.00;;;;10485039;28;20316;-77
2021/05/28 20:59:02;;;;;;;9.43;6.90;;;;;13.10;101762.00;;;;10495788;28;20650;-77
2021/05/28 21:09:07;;;;;;;9.17;6.23;;;;;12.80;101765.00;;;;10500562;28;20235;-77
2021/05/28 21:14:09;;;;;;;8.40;6.17;;;;;12.60;101769.00;;;;10501206;28;20201;-77
2021/05/28 21:19:11;;;;;;;9.53;6.43;;;;;12.50;101772.00;;;;10482159;28;20197;-77
2021/05/28 21:24:13;;;;;;;9.43;7.77;;;;;12.30;101786.00;;;;10477039;28;20252;-77
2021/05/28 21:29:15;;;;;;;10.00;7.90;;;;;12.20;101790.00;;;;10460308;28;20198;-77
2021/05/28 21:34:17;;;;;;;12.17;7.00;;;;;12.10;101794.00;;;;10460090;28;20233;-77
2021/05/28 21:39:19;;;;;;;7.63;6.23;;;;;12.00;101792.00;;;;10460431;28;20193;-77
2021/05/28 21:44:20;;;;;;;20.23;12.80;;;;;11.90;101797.00;;;;10476371;28;20221;-77
2021/05/28 21:49:25;;;;;;;8.67;5.80;;;;;11.80;101792.00;;;;10475953;28;20689;-77
2021/05/28 21:54:28;;;;;;;8.83;5.80;;;;;11.60;101801.00;;;;10459768;28;20205;-77
2021/05/28 21:59:30;;;;;;;8.67;5.93;;;;;11.50;101794.00;;;;10443381;28;20213;-77
2021/05/28 22:04:32;;;;;;;7.10;5.80;;;;;11.40;101809.00;;;;10459360;28;20221;-77
2021/05/28 22:09:33;;;;;;;7.73;6.10;;;;;11.30;101810.00;;;;10459318;28;20194;-77
2021/05/28 22:14:37;;;;;;;10.53;6.17;;;;;11.10;101811.00;;;;10459557;28;20596;-77
2021/05/28 22:19:38;;;;;;;9.17;5.77;;;;;11.00;101816.00;;;;10469636;28;20487;-77
2021/05/28 22:24:40;;;;;;;9.93;5.90;;;;;10.90;101822.00;;;;10464146;28;20224;-77
2021/05/28 22:34:44;;;;;;;11.10;7.17;;;;;10.80;101834.00;;;;10530738;28;20266;-76
2021/05/28 22:39:46;;;;;;;13.40;6.37;;;;;10.70;101827.00;;;;10480055;28;20246;-76
2021/05/28 22:44:50;;;;;;;9.27;5.63;;;;;10.60;101832.00;;;;10512324;28;20237;-76
2021/05/28 22:49:58;;;;;;;7.47;5.70;;;;;10.50;101832.00;;;;10515872;28;20579;-76
2021/05/28 22:55:01;;;;;;;8.23;5.80;;;;;10.40;101829.00;;;;10482491;28;20605;-76
2021/05/28 23:00:05;;;;;;;10.53;6.40;;;;;10.40;101829.00;;;;10521988;28;20243;-76
2021/05/28 23:05:10;;;;;;;10.10;7.13;;;;;10.50;101828.00;;;;10519532;28;20275;-76
2021/05/28 23:15:15;;;;;;;11.07;6.80;;;;;10.60;101843.00;;;;10522623;28;20322;-76
2021/05/28 23:20:18;;;;;;;8.33;6.87;;;;;10.60;101847.00;;;;10489218;28;20205;-76
2021/05/28 23:25:20;;;;;;;8.13;6.20;;;;;10.60;101840.00;;;;10499457;28;20223;-76
2021/05/28 23:30:22;;;;;;;10.60;6.27;;;;;10.60;101845.00;;;;10448999;28;20213;-76
2021/05/28 23:35:24;;;;;;;9.53;6.60;;;;;10.50;101844.00;;;;10483260;28;20220;-76
2021/05/28 23:40:26;;;;;;;12.57;7.70;;;;;10.50;101843.00;;;;10488539;28;20548;-76
2021/05/28 23:45:28;;;;;;;13.03;8.80;;;;;10.60;101840.00;;;;10485693;28;20221;-76
2021/05/28 23:50:30;;;;;;;13.37;7.83;;;;;10.70;101848.00;;;;10488301;28;20196;-76
2021/05/28 23:55:32;;;;;;;11.03;8.50;;;;;10.80;101855.00;;;;10486722;28;20201;-76
